RJOI/IWA METAR and TAF weather

Enter ICAO airport designator
Station Type Date Time Source
RJOI METAR 2020/11/25 22:55 UTC NOAA

RJOI 252255Z 31006KT 9999 FEW030 SCT050 BKN100 11/07 A3024 RMK SLP240 T01110067


Station Type Date Time Source
RJOI Decoded METAR 2020/11/25 22:55 UTC NOAA

MCAS IWAKUNI,JAPAN, JA, Japan (RJOI) 34-09N 132-14E 5M
Nov 25, 2020 - 05:55 PM EST / 2020.11.25 2255 UTC
Wind: from the NW (310 degrees) at 7 MPH (6 KT):0
Visibility: greater than 7 mile(s):0
Sky conditions: mostly cloudy
Temperature: 52.0 F (11.1 C)
Dew Point: 44.1 F (6.7 C)
Relative Humidity: 74%
Pressure (altimeter): 30.24 in. Hg (1024 hPa)
ob: RJOI 252255Z 31006KT 9999 FEW030 SCT050 BKN100 11/07 A3024 RMK SLP240 T01110067
cycle: 23

Station Type Date Time Source
RJOI TAF 2020/11/25 21:09 UTC NOAA

TAF TAF RJOI 2521/2621 31006KT 9999 FEW030 BKN040 BKN210 QNH3020INS
BECMG 2601/2603 05006KT 9999 SCT025 BKN080 BKN180 620809 611705 QNH3017INS
FM260600 16008KT 9999 SCT020 BKN060 BKN160 620906 611507 QNH3016INS
BECMG 2609/2611 30006KT 9999 SCT020 BKN030 BKN060 610903 QNH3017INS
FM261800 32006KT 9999 SCT015 BKN025 BKN080 610903 QNH3018INS T16/2603Z T10/2621Z

Example: see airport list